Reese River Valley, Nevada Weather observations

Data are for 10 minute period ending at time listed.
 Day   Time   Solar   Ave.   Ave.  Ave.  Vector  Max.   Baro.   Total    
  of    of     Rad.   Air    Rel.  Wind   Wind   Wind  Press.  Precip.   
Year   Day            Temp.  Hum.  Speed  Dir.   Gust                    
2015   (PST)  Kw/m2    F      %     mph   deg.    mph    mb.     in.     
-------------------------------------------------------------------------
 141    4:30   0.00   31.5    95    4.8   225     6.1   811.3    0.00 
 141    4:40   0.01   31.3    96    4.9   225     6.1   811.3    0.00 
 141    4:50   0.01   31.5    96    5.4   222     7.1   811.3    0.00 
 141    5:00   0.02   31.9    96    5.0   211     7.0   811.4    0.00 
 141    5:10   0.03   32.9    97    5.0   206     6.4   811.4    0.00 
 141    5:20   0.04   34.0    96    3.5   211     4.6   811.4    0.00 
 141    5:30   0.07   34.3    96    3.5   226     4.8   811.4    0.00 
 141    5:40   0.11   34.8    95    4.9   233     7.2   811.4    0.00 
 141    5:50   0.13   35.5    95    6.3   229     8.4   811.3    0.00 
 141    6:00   0.15   36.8    94    6.3   231     8.5   811.3    0.00 
 141    6:10   0.22   38.9    93    6.3   232     8.2   811.2    0.00 
 141    6:20   0.24   40.9    89    6.6   222     9.2   811.2    0.00 
 141    6:30   0.29   42.7    84    7.1   211     9.4   811.1    0.00 
 141    6:40   0.24   44.5    81    6.5   216     8.7   811.0    0.00 
 141    6:50   0.27   45.1    80    5.0   221     7.0   810.9    0.00 
 141    7:00   0.44   47.0    76    4.2   232     6.3   810.9    0.00 
 141    7:10   0.35   48.1    73    3.6   240     5.6   810.9    0.00 
 141    7:20   0.39   48.5    72    2.4   237     4.2   810.9    0.00 
 141    7:30   0.42   49.5    69    1.8   178     3.7   810.9    0.00 
 141    7:40   0.58   50.4    68    1.4   309     4.1   810.9    0.00 
 141    7:50   0.59   50.9    68    4.4   338     8.7   810.9    0.00 
 141    8:00   0.55   50.2    71    6.2   338     9.1   811.0    0.00 
 141    8:10   0.36   49.8    70    7.4   334    11.2   811.1    0.00 
 141    8:20   0.29   49.4    72    6.0   355     8.5   810.9    0.00 
 141    8:30   0.61   49.7    72    7.6   350    11.3   810.9    0.00 
 141    8:40   0.26   49.8    70    6.8   341    11.5   810.8    0.00 
 141    8:50   0.60   50.2    69    8.3     5    12.6   810.8    0.00 
 141    9:00   0.34   50.6    68    9.1     0    13.9   810.7    0.00 
 141    9:10   0.69   51.4    68    8.5     4    11.7   810.5    0.00 
 141    9:20   0.45   51.7    68    7.9    18    12.9   810.6    0.00 
 141    9:30   0.62   51.9    67    6.6    16     9.6   810.6    0.00 
 141    9:40   1.03   52.6    64    8.1     8    13.6   810.5    0.00 
 141    9:50   0.92   53.4    62    7.2     5    11.3   810.5    0.00 
 141   10:00   0.81   54.1    64    7.5    27    11.3   810.5    0.00 
 141   10:10   0.59   54.2    62    5.6    22     9.1   810.5    0.00 
 141   10:20   0.76   54.6    60    5.8    30     8.6   810.3    0.00 
 141   10:30   1.03   56.4    58    5.8    11    10.6   810.2    0.00 
 141   10:40   0.92   57.2    54    7.2    42    12.6   810.2    0.00 
 141   10:50   0.92   57.7    53    8.6    38    11.9   810.1    0.00 
 141   11:00   0.38   57.3    46    3.5    38     8.4   810.1    0.00 
 141   11:10   0.75   58.7    44    2.5    45     6.5   810.0    0.00 
 141   11:20   0.30   58.9    44    4.3     4    11.5   809.8    0.00 
 141   11:30   0.24   58.2    41    7.8    49    13.8   809.7    0.00 
 141   11:40   0.34   57.8    41    6.3   185    17.6   809.8    0.00 
 141   11:50   0.40   58.5    36    7.3   150    15.7   809.7    0.00 
 141   12:00   0.61   58.0    46    7.9   283    18.0   809.5    0.00 
 141   12:10   0.89   57.7    50    9.9   287    14.9   809.3    0.00 
 141   12:20   0.45   57.1    43    6.4   316    11.2   809.3    0.00 
 141   12:30   0.39   57.3    44    6.9   304    11.4   809.3    0.00 
 141   12:40   0.38   57.7    44    8.0   330    14.8   809.2    0.00 
 141   12:50   0.18   57.1    44    9.9   336    14.0   809.4    0.00 
 141   13:00   0.19   56.5    45    7.1   315    10.8   809.3    0.00 
 141   13:10   0.32   57.0    46    4.1   294    13.1   809.6    0.00 
 141   13:20   0.13   55.3    51   11.0   349    16.8   809.8    0.00 
 141   13:30   0.20   53.7    55   12.7    12    15.7   809.8    0.00 
 141   13:40   0.74   53.9    62   12.2    10    15.4   809.8    0.00 
 141   13:50   0.46   53.6    63   11.4    20    15.1   809.8    0.00 
 141   14:00   0.41   54.1    58   10.1   336    14.6   809.8    0.00 
 141   14:10   0.19   53.3    58    9.7    10    15.8   809.9    0.00 
 141   14:20   0.23   52.6    64    9.4     4    15.1   809.8    0.00 
 141   14:30   0.35   52.8    63   12.1   342    18.7   809.6    0.00 
 141   14:40   0.65   53.5    62   12.7   346    17.5   809.7    0.00 
 141   14:50   0.83   54.8    59   12.0   353    15.7   809.6    0.00 
 141   15:00   0.64   54.8    59   12.3   355    17.6   809.5    0.00 
 141   15:10   0.62   55.1    56   12.1   357    19.2   809.5    0.00 
 141   15:20   0.46   55.0    55    9.7   338    14.5   809.4    0.00 
 141   15:30   0.49   55.2    54    8.8     3    12.8   809.6    0.00 
 141   15:40   0.49   54.6    57    9.6    24    14.3   809.5    0.00 
 141   15:50   0.49   55.1    55    8.6    10    12.6   809.4    0.00 
 141   16:00   0.21   54.6    55    9.1    22    13.5   809.3    0.00 
 141   16:10   0.42   55.1    53    8.3    34    12.4   809.4    0.00 
 141   16:20   0.11   54.8    52    6.9    41    11.6   809.6    0.00 
 141   16:30   0.03   53.8    55    4.5    26    10.9   809.7    0.00 
 141   16:40   0.02   52.1    57    5.2   266    12.1   809.8    0.01 
 141   16:50   0.03   51.3    58    5.8    38    16.1   809.6    0.00 
 141   17:00   0.04   51.1    64    5.2   329     7.6   809.5    0.00 
 141   17:10   0.04   49.4    70    5.2   259    12.0   809.5    0.00 
 141   17:20   0.06   48.2    71   10.2   265    16.7   809.6    0.00 
 141   17:30   0.07   47.8    72    8.0   278    11.6   809.6    0.00 
 141   17:40   0.08   48.1    73    4.8   311     7.4   809.7    0.00 
 141   17:50   0.05   48.9    70    4.7   335    11.8   809.9    0.00 
 141   18:00   0.02   49.1    71    7.9     9    12.6   810.0    0.00 
 141   18:10   0.02   48.9    74    6.3    29    13.2   810.1    0.00 
 141   18:20   0.02   48.2    76    9.1    46    11.9   810.1    0.00 
 141   18:30   0.02   47.4    80    6.7    14    10.0   810.2    0.00 
 141   18:40   0.01   46.9    82    5.9   360     8.5   810.1    0.00 
 141   18:50   0.01   46.6    80    6.7   356     9.0   810.2    0.00 
 141   19:00   0.00   46.2    83    5.3   328     7.7   810.2    0.00 
 141   19:10   0.00   45.7    85    6.7   337     9.3   810.2    0.00 
 141   19:20   0.00   45.4    85    7.8   333    10.8   810.1    0.00 
 141   19:30   0.00   44.9    86    9.0   328    13.8   810.0    0.00 
 141   19:40   0.00   45.2    86    8.2   337    12.9   809.9    0.00 
 141   19:50   0.00   44.6    87    7.0   326     9.4   809.9    0.00 
 141   20:00   0.00   44.6    87    7.6   330    10.9   810.1    0.00 
 141   20:10   0.00   44.8    85    7.3   327    11.8   810.3    0.00 
 141   20:20   0.00   45.3    82    8.5   332    11.5   810.3    0.00 
 141   20:30   0.00   44.7    83    6.0   321     8.3   810.4    0.00 
 141   20:40   0.00   43.7    85    4.9   311     7.0   810.5    0.00 
 141   20:50   0.00   43.3    86    3.5   229     5.4   810.7    0.00 
 141   21:00   0.00   44.0    86    4.1   169     7.1   810.7    0.00 
 141   21:10   0.00   44.2    85    3.4   140     4.7   810.8    0.00 
 141   21:20   0.00   42.7    88    3.0   134     5.2   810.9    0.00 
 141   21:30   0.00   42.6    90    1.7   163     2.4   810.9    0.00 
 141   21:40   0.00   42.8    91    2.7   136     3.6   810.9    0.00 
 141   21:50   0.00   42.9    91    2.9   155     3.9   811.0    0.00 
 141   22:00   0.00   43.2    91    0.7   178     2.0   810.9    0.00 
 141   22:10   0.00   42.7    92    2.4   228     3.9   810.8    0.00 
 141   22:20   0.00   42.5    92    0.8   276     1.5   810.8    0.00 
 141   22:30   0.00   42.7    92    0.6   233     3.1   810.8    0.00 
 141   22:40   0.00   42.9    92    2.9   147     5.6   810.8    0.00 
 141   22:50   0.00   43.3    91    2.4   153     3.8   810.8    0.00 
 141   23:00   0.00   43.0    92    4.4   132     5.6   810.8    0.00 
 141   23:10   0.00   42.5    92    3.2   129     3.8   810.8    0.00 
 141   23:20   0.00   41.5    92    3.4   148     4.0   810.7    0.00 
 141   23:30   0.00   40.5    92    4.7   169     5.6   810.6    0.00 
 141   23:40   0.00   39.6    92    3.9   168     5.4   810.6    0.00 
 141   23:50   0.00   39.2    93    2.9   182     3.1   810.6    0.00 
 142    0:00   0.00   37.4    93    4.8   226     6.3   810.6    0.00 
 142    0:10   0.00   37.1    94    5.0   215     6.6   810.6    0.00 
 142    0:20   0.00   36.7    94    3.7   211     5.3   810.6    0.00 
 142    0:30   0.00   36.3    94    4.4   201     5.3   810.7    0.00 
 142    0:40   0.00   36.2    95    3.5   187     5.3   810.8    0.00 
 142    0:50   0.00   35.8    94    3.7   208     5.6   810.7    0.00 
 142    1:00   0.00   35.7    95    3.8   222     5.0   810.8    0.00 
 142    1:10   0.00   36.6    95    3.5   224     4.2   810.7    0.00 
 142    1:20   0.00   36.3    94    4.8   208     5.7   810.7    0.00 
 142    1:30   0.00   36.0    95    4.7   199     6.1   810.7    0.00 
 142    1:40   0.00   35.8    95    4.6   180     6.0   810.7    0.00 
 142    1:50   0.00   35.5    95    4.1   190     5.2   810.7    0.00 
 142    2:00   0.00   35.4    95    4.2   159     5.6   810.7    0.00 
 142    2:10   0.00   35.5    95    5.7   146     6.8   810.7    0.00 
 142    2:20   0.00   36.1    94    4.6   139     5.8   810.7    0.00 
 142    2:30   0.00   36.2    93    3.9   132     5.2   810.7    0.00 
 142    2:40   0.00   34.9    93    3.8   232     5.9   810.8    0.00 
 142    2:50   0.00   34.4    95    4.4   215     5.5   810.8    0.00 
 142    3:00   0.00   35.5    95    4.7   192     6.1   810.7    0.00 
 142    3:10   0.00   35.7    94    3.1   202     4.0   810.7    0.00 
 142    3:20   0.00   35.9    95    4.0   157     5.1   810.7    0.00 
 142    3:30   0.00   35.9    95    5.1   155     6.3   810.7    0.00 
 142    3:40   0.00   36.0    94    5.6   159     6.5   810.7    0.00 
 142    3:50   0.00   35.3    94    3.9   190     5.6   810.7    0.00 
 142    4:00   0.00   33.6    94    4.5   227     5.6   810.8    0.00 
 142    4:10   0.00   33.7    96    5.2   195     6.6   810.8    0.00 
 142    4:20   0.00   33.5    96    4.0   193     5.0   810.8    0.00 

Return to Reese River Valley graphs page.


Western Regional Climate Center,wrcc@dri.edu